Time;durP1;ratioP1;P1;durP2;ratioP2;P2;SDS_P1;SDS_P2;PMS_P1;PMS_P2;Temp;Humidity;BMP_temperature;BMP_pressure;BME280_temperature;BME280_humidity;BME280_pressure;Samples;Min_cycle;Max_cycle;Signal;HPM_P1;HPM_P2
2023/08/31 00:01:11;;;;;;;4.25;1.33;;;11.70;99.90;;;;;;4995513;28;20018;-90
2023/08/31 00:03:36;;;;;;;4.45;1.27;;;11.70;99.90;;;;;;4995212;28;20096;-89
2023/08/31 00:06:07;;;;;;;4.93;1.73;;;11.60;99.90;;;;;;4993851;28;20022;-89
2023/08/31 00:08:34;;;;;;;3.25;1.50;;;11.60;99.90;;;;;;4994381;28;20033;-89
2023/08/31 00:11:00;;;;;;;2.40;1.48;;;11.50;99.90;;;;;;4995211;28;20026;-89
2023/08/31 00:13:26;;;;;;;4.93;2.60;;;11.50;99.90;;;;;;4992901;28;20101;-89
2023/08/31 00:15:56;;;;;;;5.80;2.45;;;11.50;99.90;;;;;;4988298;28;20478;-89
2023/08/31 00:18:21;;;;;;;4.82;2.22;;;11.40;99.90;;;;;;4994493;28;20026;-89
2023/08/31 00:20:47;;;;;;;3.55;1.88;;;11.40;99.90;;;;;;4989605;28;20030;-89
2023/08/31 00:23:13;;;;;;;4.88;2.90;;;11.40;99.90;;;;;;4988584;28;20567;-89
2023/08/31 00:25:38;;;;;;;3.88;2.40;;;11.30;99.90;;;;;;4975118;28;20031;-89
2023/08/31 00:28:04;;;;;;;4.70;2.63;;;11.30;99.90;;;;;;4975816;28;20027;-90
2023/08/31 00:30:31;;;;;;;6.63;3.28;;;11.30;99.90;;;;;;4976452;28;20042;-90
2023/08/31 00:32:59;;;;;;;5.53;3.10;;;11.20;99.90;;;;;;4986686;28;20039;-90
2023/08/31 00:35:26;;;;;;;4.32;3.03;;;11.20;99.90;;;;;;4990761;28;20026;-90
2023/08/31 00:37:55;;;;;;;5.15;3.42;;;11.20;99.90;;;;;;4992598;28;20038;-90
2023/08/31 00:40:20;;;;;;;6.15;3.78;;;11.10;99.90;;;;;;4994163;28;20026;-90
2023/08/31 00:42:46;;;;;;;9.07;4.60;;;11.10;99.90;;;;;;4981265;28;20487;-89
2023/08/31 00:45:11;;;;;;;6.60;4.00;;;11.10;99.90;;;;;;4996619;28;20046;-89
2023/08/31 00:47:37;;;;;;;6.15;4.22;;;11.10;99.90;;;;;;4994273;28;20037;-89
2023/08/31 00:50:03;;;;;;;6.75;5.15;;;11.10;99.90;;;;;;4985390;28;20135;-89
2023/08/31 00:52:29;;;;;;;9.18;5.53;;;11.00;99.90;;;;;;4986958;28;20022;-89
2023/08/31 00:54:55;;;;;;;8.48;5.03;;;11.00;99.90;;;;;;4995025;28;20071;-90
2023/08/31 00:57:20;;;;;;;11.80;5.55;;;11.00;99.90;;;;;;4993507;28;20546;-89
2023/08/31 00:59:46;;;;;;;10.63;6.18;;;10.90;99.90;;;;;;4994937;28;20121;-90
2023/08/31 01:02:20;;;;;;;7.80;5.28;;;10.90;99.90;;;;;;4991840;28;20034;-90
2023/08/31 01:05:08;;;;;;;8.85;6.50;;;10.90;99.90;;;;;;4987772;28;20490;-90
2023/08/31 01:07:52;;;;;;;8.32;5.80;;;10.90;99.90;;;;;;4985421;28;20037;-90
2023/08/31 01:10:34;;;;;;;8.40;6.15;;;10.90;99.90;;;;;;4981665;28;20026;-89
2023/08/31 01:13:13;;;;;;;11.60;7.65;;;11.00;99.90;;;;;;4980030;28;20073;-89
2023/08/31 01:15:41;;;;;;;9.32;7.03;;;10.90;99.90;;;;;;4976104;28;20035;-90
2023/08/31 01:18:10;;;;;;;9.77;6.55;;;11.00;99.90;;;;;;5003277;28;20474;-89
2023/08/31 01:20:55;;;;;;;10.70;7.63;;;11.00;99.90;;;;;;4994368;28;20027;-90
2023/08/31 01:23:24;;;;;;;12.27;8.13;;;11.10;99.90;;;;;;4990179;28;20080;-89
2023/08/31 01:25:50;;;;;;;12.55;8.73;;;11.10;99.90;;;;;;4990138;28;20026;-89
2023/08/31 01:28:15;;;;;;;13.65;9.15;;;11.10;99.90;;;;;;4979252;28;20076;-89
2023/08/31 01:30:41;;;;;;;12.20;8.40;;;11.20;99.90;;;;;;4992158;28;20034;-90
2023/08/31 01:33:07;;;;;;;10.90;8.52;;;11.30;99.90;;;;;;4985624;28;20110;-91
2023/08/31 01:35:43;;;;;;;13.85;9.57;;;11.30;99.90;;;;;;4991720;28;20057;-90
2023/08/31 01:38:10;;;;;;;14.15;9.90;;;11.40;99.90;;;;;;4989143;28;20030;-90
2023/08/31 01:40:43;;;;;;;12.25;8.57;;;11.40;99.90;;;;;;4977129;28;20030;-89
2023/08/31 01:43:10;;;;;;;11.35;8.73;;;11.50;99.90;;;;;;4985399;28;20042;-89
2023/08/31 01:45:37;;;;;;;12.35;9.88;;;11.60;99.90;;;;;;4990462;28;20490;-91
2023/08/31 01:48:04;;;;;;;13.70;9.32;;;11.60;99.90;;;;;;4994271;28;20038;-90
2023/08/31 01:50:30;;;;;;;13.65;9.18;;;11.60;99.90;;;;;;4983663;28;20031;-90
2023/08/31 01:52:58;;;;;;;13.48;9.95;;;11.70;99.90;;;;;;4989875;28;20188;-90
2023/08/31 01:55:24;;;;;;;16.40;9.70;;;11.70;99.90;;;;;;4994241;28;20030;-90
2023/08/31 01:57:50;;;;;;;14.35;10.45;;;11.80;99.90;;;;;;4989517;28;20034;-90
2023/08/31 02:00:17;;;;;;;13.48;9.43;;;11.80;99.90;;;;;;4991433;28;20026;-90
2023/08/31 02:02:43;;;;;;;11.85;9.23;;;11.90;99.90;;;;;;4989031;28;20052;-91
2023/08/31 02:05:09;;;;;;;12.25;9.68;;;11.90;99.90;;;;;;4994792;28;20099;-90
2023/08/31 02:07:35;;;;;;;12.82;9.02;;;11.90;99.90;;;;;;4992939;28;20030;-91
2023/08/31 02:10:00;;;;;;;14.30;10.32;;;12.00;99.90;;;;;;4993223;28;20146;-90
2023/08/31 02:12:26;;;;;;;14.80;10.38;;;12.00;99.90;;;;;;4991065;28;20026;-90
2023/08/31 02:14:51;;;;;;;15.50;9.98;;;12.00;99.90;;;;;;4988835;28;20081;-90
2023/08/31 02:17:17;;;;;;;17.20;10.15;;;12.00;99.90;;;;;;4989131;28;20402;-90
2023/08/31 02:19:42;;;;;;;12.57;9.85;;;12.10;99.90;;;;;;4992615;28;20034;-91
2023/08/31 02:22:08;;;;;;;18.92;11.23;;;12.10;99.90;;;;;;4993242;28;20089;-90
2023/08/31 02:24:34;;;;;;;15.90;10.13;;;12.10;99.90;;;;;;4992610;28;20034;-90
2023/08/31 02:26:59;;;;;;;14.65;11.05;;;12.10;99.90;;;;;;4989308;28;20034;-90
2023/08/31 02:29:25;;;;;;;14.98;10.20;;;12.10;99.90;;;;;;4991162;28;20034;-89
2023/08/31 02:31:50;;;;;;;16.70;11.75;;;12.10;99.90;;;;;;4988344;28;20022;-90
2023/08/31 02:34:16;;;;;;;16.83;10.63;;;12.10;99.90;;;;;;4992293;28;20030;-90
2023/08/31 02:36:41;;;;;;;15.90;10.50;;;12.10;99.90;;;;;;4993361;28;20042;-89
2023/08/31 02:39:07;;;;;;;13.70;11.00;;;12.00;99.90;;;;;;4989340;28;20376;-90
2023/08/31 02:41:32;;;;;;;17.02;11.60;;;12.00;99.90;;;;;;4988979;28;20030;-90
2023/08/31 02:43:58;;;;;;;17.65;12.02;;;11.90;99.90;;;;;;4986334;28;20130;-90
2023/08/31 02:46:24;;;;;;;17.02;11.80;;;11.90;99.90;;;;;;4987437;28;20034;-90
2023/08/31 02:48:50;;;;;;;17.55;11.43;;;11.90;99.90;;;;;;4992959;28;20038;-90
2023/08/31 02:51:16;;;;;;;16.35;10.60;;;11.90;99.90;;;;;;4991006;28;20061;-90
2023/08/31 02:53:41;;;;;;;16.85;11.43;;;11.90;99.90;;;;;;4989240;28;20049;-89
2023/08/31 02:56:07;;;;;;;16.10;11.48;;;11.90;99.90;;;;;;4992103;28;20038;-90
2023/08/31 02:58:33;;;;;;;16.95;11.55;;;11.90;99.90;;;;;;4992389;28;20046;-90
2023/08/31 03:01:11;;;;;;;15.52;10.55;;;11.90;99.90;;;;;;4991741;28;20057;-89
2023/08/31 03:03:38;;;;;;;16.08;10.52;;;12.00;99.90;;;;;;4990201;28;20046;-90
2023/08/31 03:06:03;;;;;;;16.83;12.48;;;12.00;99.90;;;;;;4990659;28;20026;-90
2023/08/31 03:08:29;;;;;;;19.55;11.70;;;12.00;99.90;;;;;;4989783;28;20062;-90
2023/08/31 03:10:56;;;;;;;17.60;11.20;;;12.00;99.90;;;;;;4981474;28;20026;-90
2023/08/31 03:13:22;;;;;;;15.38;11.15;;;12.10;99.90;;;;;;4992404;28;20039;-90
2023/08/31 03:15:47;;;;;;;17.65;12.35;;;12.10;99.90;;;;;;4986194;28;20034;-89
2023/08/31 03:18:13;;;;;;;15.45;11.43;;;12.20;99.90;;;;;;4992309;28;20026;-90
2023/08/31 03:20:38;;;;;;;15.20;10.00;;;12.20;99.90;;;;;;4992455;28;20491;-89
2023/08/31 03:23:04;;;;;;;15.57;11.10;;;12.20;99.90;;;;;;4987830;28;20045;-90
2023/08/31 03:25:29;;;;;;;19.08;11.73;;;12.20;99.90;;;;;;4984895;28;20026;-90
2023/08/31 03:27:55;;;;;;;17.50;11.23;;;12.30;99.90;;;;;;4992581;28;20045;-90
2023/08/31 03:30:20;;;;;;;20.85;11.90;;;12.30;99.90;;;;;;4991756;28;20124;-90
2023/08/31 03:32:46;;;;;;;17.95;11.00;;;12.30;99.90;;;;;;4990464;28;20422;-90
2023/08/31 03:35:11;;;;;;;14.60;10.63;;;12.30;99.90;;;;;;4986423;28;20042;-91
2023/08/31 03:37:37;;;;;;;18.33;11.02;;;12.40;99.90;;;;;;4992289;28;20045;-91
2023/08/31 03:40:06;;;;;;;15.93;10.40;;;12.30;99.90;;;;;;4987470;28;20027;-91
2023/08/31 03:42:31;;;;;;;15.13;11.15;;;12.30;99.90;;;;;;4989849;28;20498;-90
2023/08/31 03:44:57;;;;;;;13.35;10.25;;;12.30;99.90;;;;;;4990552;28;20036;-90
2023/08/31 03:47:22;;;;;;;16.92;10.75;;;12.20;99.90;;;;;;4991488;28;20117;-90
2023/08/31 03:49:48;;;;;;;16.00;10.55;;;12.30;99.90;;;;;;4984076;28;20030;-90
2023/08/31 03:52:13;;;;;;;16.55;10.65;;;12.30;99.90;;;;;;4991761;28;20054;-91
2023/08/31 03:54:39;;;;;;;15.27;11.02;;;12.30;99.90;;;;;;4990971;28;20389;-91
2023/08/31 03:57:04;;;;;;;15.52;9.82;;;12.30;99.90;;;;;;4988169;28;20030;-90
2023/08/31 03:59:30;;;;;;;19.25;11.75;;;12.30;99.90;;;;;;4989199;28;20070;-90
2023/08/31 04:01:55;;;;;;;16.45;11.40;;;12.30;99.90;;;;;;4990444;28;20028;-90
2023/08/31 04:04:21;;;;;;;19.40;12.80;;;12.30;99.90;;;;;;4987894;28;20038;-90
2023/08/31 04:06:46;;;;;;;20.98;13.00;;;12.30;99.90;;;;;;4991688;28;20128;-91
2023/08/31 04:09:12;;;;;;;18.50;12.82;;;12.40;99.90;;;;;;4990257;28;20423;-89
2023/08/31 04:11:37;;;;;;;18.33;14.07;;;12.30;99.90;;;;;;4988001;28;20042;-90
2023/08/31 04:14:03;;;;;;;19.08;13.18;;;12.30;99.90;;;;;;4985811;28;20034;-90
2023/08/31 04:16:28;;;;;;;21.75;13.80;;;12.20;99.90;;;;;;4993865;28;20521;-90
2023/08/31 04:18:55;;;;;;;21.63;15.55;;;12.20;99.90;;;;;;4993415;28;20018;-91
2023/08/31 04:21:21;;;;;;;19.67;14.75;;;12.20;99.90;;;;;;4995775;28;20434;-91
2023/08/31 04:23:46;;;;;;;22.15;15.73;;;12.10;99.90;;;;;;4995094;28;20181;-90
2023/08/31 04:26:12;;;;;;;22.17;14.38;;;12.10;99.90;;;;;;4988794;28;20019;-90
2023/08/31 04:28:39;;;;;;;23.60;17.10;;;12.00;99.90;;;;;;4995541;28;20190;-90
2023/08/31 04:31:06;;;;;;;21.27;15.95;;;12.00;99.90;;;;;;4994918;28;20050;-89
2023/08/31 04:33:35;;;;;;;21.38;14.82;;;11.90;99.90;;;;;;4985296;28;20486;-91
2023/08/31 04:36:01;;;;;;;24.58;16.33;;;11.80;99.90;;;;;;4986181;28;20065;-89
2023/08/31 04:38:27;;;;;;;18.98;16.38;;;11.80;99.90;;;;;;4986231;28;20391;-90
2023/08/31 04:40:52;;;;;;;22.80;17.73;;;11.70;99.90;;;;;;4987576;28;20028;-90
2023/08/31 04:43:18;;;;;;;22.92;16.63;;;11.70;99.90;;;;;;4989306;28;20042;-91
2023/08/31 04:45:43;;;;;;;22.85;18.60;;;11.60;99.90;;;;;;4991933;28;20018;-89
2023/08/31 04:48:09;;;;;;;24.17;18.25;;;11.60;99.90;;;;;;4995096;28;20022;-90
2023/08/31 04:50:35;;;;;;;25.42;19.17;;;11.60;99.90;;;;;;4986257;28;20035;-90
2023/08/31 04:53:00;;;;;;;24.52;18.10;;;11.60;99.90;;;;;;4992289;28;20045;-91
2023/08/31 04:55:26;;;;;;;23.67;17.98;;;11.50;99.90;;;;;;4992688;28;20018;-91
2023/08/31 04:57:51;;;;;;;23.50;18.45;;;11.50;99.90;;;;;;4994249;28;20053;-90
2023/08/31 05:00:18;;;;;;;28.08;20.48;;;11.50;99.90;;;;;;4988630;28;20076;-91
2023/08/31 05:02:43;;;;;;;28.95;20.13;;;11.40;99.90;;;;;;4993019;28;20064;-91
2023/08/31 05:05:09;;;;;;;26.33;19.98;;;11.50;99.90;;;;;;4986137;28;20023;-91
2023/08/31 05:07:35;;;;;;;27.45;19.13;;;11.40;99.90;;;;;;4991348;28;20022;-92
2023/08/31 05:10:00;;;;;;;23.02;17.77;;;11.40;99.90;;;;;;4994112;28;20034;-90
2023/08/31 05:12:26;;;;;;;25.92;18.55;;;11.40;99.90;;;;;;4989035;28;20113;-90
2023/08/31 05:14:51;;;;;;;26.60;19.90;;;11.40;99.90;;;;;;4990666;28;20493;-91
2023/08/31 05:17:16;;;;;;;28.30;20.17;;;11.40;99.90;;;;;;4988513;28;20117;-90
2023/08/31 05:19:42;;;;;;;23.17;18.42;;;11.40;99.90;;;;;;4991050;28;20025;-91
2023/08/31 05:22:07;;;;;;;27.05;18.75;;;11.40;99.90;;;;;;4970525;28;20508;-91
2023/08/31 05:24:33;;;;;;;26.25;18.40;;;11.40;99.90;;;;;;4988675;28;20030;-92
2023/08/31 05:26:58;;;;;;;25.35;18.73;;;11.40;99.90;;;;;;4993272;28;20033;-91
2023/08/31 05:29:24;;;;;;;28.85;19.20;;;11.40;99.90;;;;;;4992393;28;20369;-91
2023/08/31 05:31:52;;;;;;;27.02;19.48;;;11.50;99.90;;;;;;4986049;28;20522;-93
2023/08/31 05:34:21;;;;;;;25.45;18.75;;;11.50;99.90;;;;;;4985626;28;20027;-91
2023/08/31 05:36:46;;;;;;;24.25;18.05;;;11.50;99.90;;;;;;4991497;28;20101;-90
2023/08/31 05:39:12;;;;;;;24.35;18.70;;;11.60;99.90;;;;;;4998641;28;20038;-92
2023/08/31 05:41:40;;;;;;;24.58;18.58;;;11.70;99.90;;;;;;4990298;28;20149;-91
2023/08/31 05:44:08;;;;;;;24.00;17.67;;;11.70;99.90;;;;;;4988690;28;20042;-93
2023/08/31 05:46:33;;;;;;;23.35;18.05;;;11.80;99.90;;;;;;4994158;28;20057;-92
2023/08/31 05:48:59;;;;;;;21.63;16.08;;;11.80;99.90;;;;;;4982918;28;20162;-92
2023/08/31 05:51:25;;;;;;;26.58;17.10;;;11.80;99.90;;;;;;4985864;28;20039;-92
2023/08/31 05:53:50;;;;;;;27.17;18.38;;;11.90;99.90;;;;;;4987348;28;20022;-92
2023/08/31 05:56:16;;;;;;;23.90;17.05;;;11.90;99.90;;;;;;4991073;28;20495;-91
2023/08/31 05:58:41;;;;;;;23.30;15.93;;;12.00;99.90;;;;;;4977359;28;20394;-93
2023/08/31 06:01:07;;;;;;;21.67;15.77;;;12.00;99.90;;;;;;4975400;28;20027;-92
2023/08/31 06:03:33;;;;;;;21.52;15.35;;;12.10;99.90;;;;;;4976586;28;20035;-92
2023/08/31 06:05:59;;;;;;;21.42;14.75;;;12.10;99.90;;;;;;5007407;23;20042;-73
2023/08/31 06:08:25;;;;;;;21.27;15.43;;;12.10;99.90;;;;;;5009886;28;20026;-73
2023/08/31 06:10:51;;;;;;;23.98;16.65;;;12.20;99.90;;;;;;5003057;28;20137;-74
2023/08/31 06:13:17;;;;;;;23.02;16.10;;;12.20;99.90;;;;;;5005002;28;20045;-74
2023/08/31 06:15:44;;;;;;;22.33;15.70;;;12.20;99.90;;;;;;5006335;28;20478;-73
2023/08/31 06:18:10;;;;;;;20.60;14.98;;;12.20;99.90;;;;;;5003124;28;20044;-73
2023/08/31 06:20:35;;;;;;;22.75;15.00;;;12.30;99.90;;;;;;5010375;28;20034;-73
2023/08/31 06:23:02;;;;;;;22.35;15.00;;;12.30;99.90;;;;;;5010120;28;20089;-74
2023/08/31 06:25:27;;;;;;;17.98;14.07;;;12.40;99.90;;;;;;5006769;28;20386;-74
2023/08/31 06:27:53;;;;;;;19.45;14.30;;;12.50;99.90;;;;;;5005401;28;20077;-73
2023/08/31 06:30:19;;;;;;;21.27;14.95;;;12.60;99.90;;;;;;5012020;28;20058;-73
2023/08/31 06:32:45;;;;;;;20.00;13.85;;;12.70;99.90;;;;;;5007271;28;20022;-73
2023/08/31 06:35:12;;;;;;;20.38;14.25;;;12.90;99.90;;;;;;5009574;28;20034;-73
2023/08/31 06:37:38;;;;;;;21.13;14.68;;;13.00;99.90;;;;;;5007469;28;20425;-74
2023/08/31 06:40:06;;;;;;;20.73;14.48;;;13.20;99.90;;;;;;5011092;28;20034;-74
2023/08/31 06:42:31;;;;;;;20.70;13.38;;;13.30;99.90;;;;;;5006389;28;20038;-73
2023/08/31 06:44:57;;;;;;;16.88;13.27;;;13.40;99.90;;;;;;5007257;28;20030;-74
2023/08/31 06:47:23;;;;;;;18.20;13.57;;;13.40;99.90;;;;;;5003801;28;20022;-74
2023/08/31 06:49:49;;;;;;;15.93;12.65;;;13.50;99.90;;;;;;5006566;28;20378;-73
2023/08/31 06:52:15;;;;;;;17.48;13.20;;;13.50;99.90;;;;;;5006131;28;20029;-74
2023/08/31 06:54:41;;;;;;;16.50;12.93;;;13.60;99.90;;;;;;5006001;28;20022;-74
2023/08/31 06:57:07;;;;;;;21.08;12.88;;;13.60;99.90;;;;;;5005127;28;20367;-73
2023/08/31 06:59:33;;;;;;;20.45;12.98;;;13.70;99.90;;;;;;5010821;28;20026;-74
2023/08/31 07:01:58;;;;;;;13.65;12.18;;;13.70;99.90;;;;;;5005342;28;20591;-73
2023/08/31 07:04:24;;;;;;;15.65;11.82;;;13.70;99.90;;;;;;5001801;28;20526;-74
2023/08/31 07:06:50;;;;;;;15.02;11.05;;;13.70;99.90;;;;;;5016471;28;20058;-73
2023/08/31 07:09:15;;;;;;;20.85;13.05;;;13.80;99.90;;;;;;5019630;28;20025;-73
2023/08/31 07:11:41;;;;;;;18.90;11.95;;;14.00;99.90;;;;;;5028950;28;20022;-73
2023/08/31 07:14:06;;;;;;;15.75;10.63;;;14.00;99.90;;;;;;5010908;28;20390;-74
2023/08/31 07:16:32;;;;;;;14.90;11.48;;;14.10;99.90;;;;;;5027545;28;20034;-73
2023/08/31 07:18:57;;;;;;;19.67;12.98;;;14.20;99.90;;;;;;5025786;28;20026;-73
2023/08/31 07:21:23;;;;;;;15.80;9.68;;;14.20;99.90;;;;;;5016011;28;20037;-73
2023/08/31 07:23:48;;;;;;;14.85;11.02;;;14.20;99.90;;;;;;5025090;28;20042;-73
2023/08/31 07:26:15;;;;;;;16.88;12.18;;;14.30;99.90;;;;;;5022694;28;20083;-74
2023/08/31 07:28:41;;;;;;;16.15;10.98;;;14.40;99.90;;;;;;5007969;28;20561;-73
2023/08/31 07:31:07;;;;;;;14.80;11.10;;;14.40;99.90;;;;;;5027747;28;20100;-73
2023/08/31 07:33:34;;;;;;;15.93;10.45;;;14.50;99.90;;;;;;5030393;28;20033;-73
2023/08/31 07:36:01;;;;;;;16.13;10.95;;;14.50;99.90;;;;;;5022888;28;20049;-74
2023/08/31 07:38:27;;;;;;;15.90;11.25;;;14.60;99.90;;;;;;5029776;28;20052;-73
2023/08/31 07:40:53;;;;;;;12.32;10.18;;;14.70;99.90;;;;;;5024089;28;20060;-73
2023/08/31 07:43:18;;;;;;;18.60;11.10;;;14.80;99.90;;;;;;5029061;28;20048;-73
2023/08/31 07:45:44;;;;;;;14.57;10.02;;;14.90;99.90;;;;;;5022731;28;20100;-73
2023/08/31 07:48:09;;;;;;;13.50;9.35;;;14.90;99.90;;;;;;5030194;28;20037;-73
2023/08/31 07:50:35;;;;;;;14.40;10.10;;;15.00;99.90;;;;;;5028656;28;20029;-75
2023/08/31 07:53:01;;;;;;;13.48;9.73;;;15.00;99.90;;;;;;5024060;28;20486;-73
2023/08/31 07:55:26;;;;;;;12.25;8.88;;;15.10;99.90;;;;;;5014500;28;20550;-73
2023/08/31 07:57:51;;;;;;;14.25;9.02;;;15.10;99.90;;;;;;5023347;28;20109;-73
2023/08/31 08:00:18;;;;;;;15.25;10.45;;;15.20;99.90;;;;;;5026782;28;20071;-73
2023/08/31 08:02:45;;;;;;;12.07;9.52;;;15.20;99.90;;;;;;5015868;28;20457;-73
2023/08/31 08:05:11;;;;;;;13.15;8.02;;;15.30;99.90;;;;;;5027052;28;20026;-73
2023/08/31 08:07:36;;;;;;;13.18;8.10;;;15.40;99.90;;;;;;5025444;28;20095;-73
2023/08/31 08:10:02;;;;;;;15.90;8.75;;;15.50;99.90;;;;;;5023988;28;20065;-73
2023/08/31 08:12:38;;;;;;;12.93;8.02;;;15.70;99.90;;;;;;5029650;28;20026;-73
2023/08/31 08:15:04;;;;;;;11.90;7.63;;;15.90;99.90;;;;;;5012010;28;20040;-74
2023/08/31 08:17:29;;;;;;;12.18;7.50;;;16.00;99.90;;;;;;5021378;28;20432;-73
2023/08/31 08:19:54;;;;;;;12.85;7.85;;;16.10;99.90;;;;;;5029222;28;20037;-73
2023/08/31 08:22:20;;;;;;;10.60;7.80;;;16.20;99.90;;;;;;5023305;28;20029;-73
2023/08/31 08:24:45;;;;;;;12.07;7.60;;;16.30;99.90;;;;;;5030271;28;20069;-74
2023/08/31 08:27:11;;;;;;;11.40;7.50;;;16.50;99.90;;;;;;5020008;28;20476;-73
2023/08/31 08:29:36;;;;;;;12.52;7.38;;;16.60;99.90;;;;;;5029247;28;20060;-73
2023/08/31 08:32:03;;;;;;;9.52;6.13;;;16.80;99.90;;;;;;5030743;28;20513;-73
2023/08/31 08:34:28;;;;;;;9.95;5.15;;;16.90;99.90;;;;;;5029676;28;20037;-73
2023/08/31 08:36:54;;;;;;;7.18;4.90;;;17.00;99.90;;;;;;5030306;28;20030;-73
2023/08/31 08:39:20;;;;;;;5.70;3.35;;;17.10;99.90;;;;;;5028244;28;20416;-72
2023/08/31 08:41:46;;;;;;;7.47;3.88;;;17.20;99.90;;;;;;5030659;28;20105;-73
2023/08/31 08:44:16;;;;;;;6.60;3.08;;;17.40;99.90;;;;;;5029322;28;20371;-73
2023/08/31 08:46:43;;;;;;;5.75;2.80;;;17.50;99.90;;;;;;5026441;28;20031;-73
2023/08/31 08:49:10;;;;;;;7.65;3.05;;;17.60;99.90;;;;;;5021409;28;20517;-73
2023/08/31 08:51:36;;;;;;;6.28;2.58;;;17.70;99.90;;;;;;5029760;28;20030;-73
2023/08/31 08:54:03;;;;;;;5.50;2.53;;;17.70;99.90;;;;;;5020418;28;20431;-73
2023/08/31 08:56:28;;;;;;;3.75;2.35;;;17.70;99.90;;;;;;5020827;28;20458;-73
2023/08/31 08:58:54;;;;;;;6.30;2.65;;;17.80;99.90;;;;;;5025835;28;20100;-73
2023/08/31 09:01:22;;;;;;;5.93;2.70;;;17.80;99.90;;;;;;5033599;28;20037;-72
2023/08/31 09:03:49;;;;;;;4.43;2.08;;;17.80;99.90;;;;;;5033886;28;20041;-73
2023/08/31 09:06:15;;;;;;;5.93;3.05;;;17.80;99.90;;;;;;5032745;28;20132;-73
2023/08/31 09:08:41;;;;;;;5.80;2.58;;;17.80;99.90;;;;;;5025543;28;20145;-73
2023/08/31 09:11:07;;;;;;;4.93;2.50;;;17.90;99.90;;;;;;5019160;28;20025;-73
2023/08/31 09:13:33;;;;;;;4.50;2.00;;;18.00;99.90;;;;;;5033182;28;20116;-73
2023/08/31 09:15:59;;;;;;;5.15;2.05;;;18.00;99.90;;;;;;5034016;28;20036;-73
2023/08/31 09:18:31;;;;;;;7.22;2.25;;;18.00;99.90;;;;;;5021574;28;20033;-73
2023/08/31 09:20:57;;;;;;;;;;;18.10;99.90;;;;;;5034220;28;20037;-73
2023/08/31 09:23:23;;;;;;;3.45;1.95;;;18.20;99.90;;;;;;5032613;28;20346;-74
2023/08/31 09:25:53;;;;;;;3.00;1.30;;;18.20;99.90;;;;;;5033282;28;20028;-73
2023/08/31 09:28:23;;;;;;;6.15;1.05;;;18.30;99.90;;;;;;5025408;28;20029;-74
2023/08/31 09:30:50;;;;;;;3.08;1.17;;;18.20;99.90;;;;;;5032600;28;20481;-73
2023/08/31 09:33:17;;;;;;;2.67;0.90;;;18.20;99.90;;;;;;5030299;28;20017;-73
2023/08/31 09:35:51;;;;;;;5.00;0.90;;;18.40;99.90;;;;;;5020074;28;20032;-73
2023/08/31 09:38:17;;;;;;;4.68;1.10;;;18.60;99.90;;;;;;5015546;28;20021;-73
2023/08/31 09:40:42;;;;;;;3.00;1.00;;;18.80;99.90;;;;;;5032690;28;20048;-73
2023/08/31 09:43:08;;;;;;;4.90;1.35;;;19.10;99.90;;;;;;5025604;28;20517;-73
2023/08/31 09:45:35;;;;;;;4.03;0.90;;;19.10;99.90;;;;;;5028523;28;20044;-73
2023/08/31 09:48:03;;;;;;;2.55;0.90;;;19.00;99.90;;;;;;5028838;28;20033;-73
2023/08/31 09:50:30;;;;;;;3.55;0.80;;;19.00;99.90;;;;;;5012914;28;20034;-72
2023/08/31 09:53:00;;;;;;;4.80;1.45;;;18.90;99.90;;;;;;5024372;28;20088;-72
2023/08/31 09:55:29;;;;;;;3.60;0.80;;;18.90;99.90;;;;;;5022721;28;20033;-72
2023/08/31 09:57:57;;;;;;;5.20;1.10;;;19.00;99.90;;;;;;5026046;28;20428;-72
2023/08/31 10:00:24;;;;;;;2.95;1.00;;;19.20;99.90;;;;;;5027965;28;20033;-72
2023/08/31 10:02:51;;;;;;;4.25;1.02;;;19.40;99.90;;;;;;5000631;28;20173;-73
2023/08/31 10:05:17;;;;;;;5.80;0.93;;;19.70;99.90;;;;;;5025759;28;21124;-73
2023/08/31 10:07:45;;;;;;;3.22;1.10;;;19.90;99.90;;;;;;5021697;28;20145;-73
2023/08/31 10:10:11;;;;;;;3.55;0.60;;;19.90;99.90;;;;;;5027952;28;20040;-73
2023/08/31 10:12:38;;;;;;;3.60;0.85;;;19.80;99.90;;;;;;5022126;28;20033;-73
2023/08/31 10:15:05;;;;;;;3.88;0.93;;;19.80;99.90;;;;;;5029263;28;20485;-74
2023/08/31 10:17:31;;;;;;;3.33;1.02;;;19.80;99.90;;;;;;5030059;28;20037;-73
2023/08/31 10:19:57;;;;;;;2.65;0.80;;;20.00;99.90;;;;;;5020506;28;20029;-73
2023/08/31 10:22:22;;;;;;;2.92;1.13;;;20.10;99.90;;;;;;5020306;28;20083;-73
2023/08/31 10:25:00;;;;;;;3.28;0.70;;;20.00;99.90;;;;;;5008008;28;20030;-73
2023/08/31 10:27:27;;;;;;;3.85;0.77;;;20.10;99.90;;;;;;5028315;28;20132;-73
2023/08/31 10:29:53;;;;;;;2.33;0.70;;;20.20;99.90;;;;;;5029170;28;20048;-74
2023/08/31 10:32:19;;;;;;;3.05;1.02;;;20.40;99.90;;;;;;5031921;28;20026;-73
2023/08/31 10:35:04;;;;;;;5.28;0.82;;;20.30;99.90;;;;;;5033017;28;20017;-73
2023/08/31 10:37:30;;;;;;;6.82;0.60;;;20.40;99.90;;;;;;5029383;28;20102;-73
2023/08/31 10:40:14;;;;;;;8.93;3.95;;;20.30;99.90;;;;;;5030957;28;20030;-73
2023/08/31 10:42:47;;;;;;;5.78;1.52;;;20.10;99.90;;;;;;5028492;28;20048;-73
2023/08/31 10:45:13;;;;;;;4.82;0.90;;;19.90;99.90;;;;;;5032399;28;20105;-73
2023/08/31 10:47:42;;;;;;;6.88;1.63;;;19.50;99.90;;;;;;5032242;28;20017;-73
2023/08/31 10:50:22;;;;;;;2.63;0.52;;;19.30;99.90;;;;;;5010355;28;20141;-73
2023/08/31 10:52:48;;;;;;;2.35;0.80;;;18.90;99.90;;;;;;5025861;28;20034;-73
2023/08/31 10:55:14;;;;;;;2.60;0.70;;;18.80;99.90;;;;;;5029392;28;20432;-74
2023/08/31 10:57:41;;;;;;;4.95;1.02;;;18.70;99.90;;;;;;5021842;28;20037;-73
2023/08/31 11:00:08;;;;;;;4.40;0.93;;;18.60;99.90;;;;;;5028756;28;20017;-73
2023/08/31 11:02:37;;;;;;;3.08;1.15;;;18.50;99.90;;;;;;5031002;28;20045;-73
2023/08/31 11:05:16;;;;;;;5.80;1.35;;;18.40;99.90;;;;;;5031076;28;20028;-73
2023/08/31 11:07:52;;;;;;;3.33;1.35;;;18.20;99.90;;;;;;5023135;28;20396;-74
2023/08/31 11:10:23;;;;;;;4.30;1.50;;;18.10;99.90;;;;;;5021282;28;20029;-73
2023/08/31 11:12:50;;;;;;;3.35;1.10;;;17.90;99.90;;;;;;5026993;28;20032;-73
2023/08/31 11:15:18;;;;;;;2.58;0.90;;;17.80;99.90;;;;;;5027078;28;20053;-73
2023/08/31 11:17:46;;;;;;;4.22;1.10;;;17.70;99.90;;;;;;5029272;28;20075;-73
2023/08/31 11:20:19;;;;;;;2.60;0.40;;;17.50;99.90;;;;;;5025811;28;20025;-73
2023/08/31 11:22:47;;;;;;;1.10;0.35;;;17.30;99.90;;;;;;5019826;28;20665;-73
2023/08/31 11:25:13;;;;;;;1.55;0.40;;;17.10;99.90;;;;;;5025684;28;20033;-73
2023/08/31 11:27:40;;;;;;;2.70;0.50;;;17.00;99.90;;;;;;5009617;28;20390;-74
2023/08/31 11:30:27;;;;;;;1.38;0.40;;;16.90;99.90;;;;;;5017629;28;20397;-73
2023/08/31 11:32:53;;;;;;;4.32;0.65;;;16.90;99.90;;;;;;5022530;28;20036;-73
2023/08/31 11:35:19;;;;;;;3.80;0.52;;;17.00;99.90;;;;;;5029399;28;20934;-73
2023/08/31 11:37:49;;;;;;;1.13;0.30;;;17.20;99.90;;;;;;5025724;28;20120;-73
2023/08/31 11:40:14;;;;;;;1.88;0.35;;;17.50;99.90;;;;;;5026101;28;20377;-73
2023/08/31 11:42:40;;;;;;;1.63;0.40;;;17.80;99.90;;;;;;5029320;28;20037;-73
2023/08/31 11:45:07;;;;;;;3.22;0.40;;;18.00;99.90;;;;;;5013343;28;20401;-73
2023/08/31 11:47:33;;;;;;;1.88;0.40;;;17.90;99.90;;;;;;5025002;28;20034;-73
2023/08/31 11:50:01;;;;;;;1.65;0.50;;;17.90;99.90;;;;;;5031422;28;20363;-74
2023/08/31 11:52:27;;;;;;;3.88;1.15;;;17.90;99.90;;;;;;5030941;28;20052;-73
2023/08/31 11:54:53;;;;;;;2.28;0.65;;;17.90;99.90;;;;;;5025608;28;20038;-73
2023/08/31 11:57:24;;;;;;;3.08;0.90;;;17.90;99.90;;;;;;5027090;28;20026;-73
2023/08/31 11:59:52;;;;;;;2.40;0.90;;;18.00;99.90;;;;;;5019258;28;20041;-73
2023/08/31 12:02:19;;;;;;;2.17;1.20;;;18.10;99.90;;;;;;5017416;28;20167;-73
2023/08/31 12:04:46;;;;;;;2.47;1.02;;;18.20;99.90;;;;;;5026321;28;20033;-73
2023/08/31 12:07:16;;;;;;;4.90;1.33;;;18.40;99.90;;;;;;5018133;28;20038;-73
2023/08/31 12:09:44;;;;;;;3.33;0.85;;;18.70;99.90;;;;;;5011474;28;20030;-73
2023/08/31 12:12:10;;;;;;;4.40;1.10;;;18.90;99.90;;;;;;5015877;28;20034;-73
2023/08/31 12:14:40;;;;;;;7.57;1.23;;;19.10;99.90;;;;;;5024669;28;20045;-73
2023/08/31 12:17:08;;;;;;;2.72;0.95;;;19.20;99.90;;;;;;5030181;28;20032;-73
2023/08/31 12:19:36;;;;;;;2.35;1.08;;;19.20;99.90;;;;;;5030485;28;20036;-74
2023/08/31 12:22:02;;;;;;;2.92;1.20;;;19.20;99.90;;;;;;5029157;28;20453;-73
2023/08/31 12:24:28;;;;;;;2.25;1.15;;;19.30;99.90;;;;;;5013881;28;20053;-73
2023/08/31 12:26:54;;;;;;;4.45;1.75;;;19.30;99.90;;;;;;5020411;28;20075;-73
2023/08/31 12:29:19;;;;;;;6.93;1.50;;;19.40;99.90;;;;;;5028823;28;20029;-74
2023/08/31 12:31:45;;;;;;;8.35;1.45;;;19.50;99.90;;;;;;5030302;28;20456;-73
2023/08/31 12:34:11;;;;;;;4.20;1.25;;;19.60;99.90;;;;;;5029249;28;20021;-74